createdAt,value
2019-05-02T00:00:29.848Z,0.00
2019-05-02T00:02:23.990Z,0.00
2019-05-02T00:03:22.708Z,0.00
2019-05-02T00:05:16.628Z,0.00
2019-05-02T00:06:16.577Z,0.00
2019-05-02T00:08:09.470Z,0.00
2019-05-02T00:09:11.175Z,0.00
2019-05-02T00:10:55.140Z,0.00
2019-05-02T00:12:02.287Z,0.00
2019-05-02T00:13:55.947Z,0.00
2019-05-02T00:14:47.975Z,0.00
2019-05-02T00:15:47.971Z,0.00
2019-05-02T00:16:49.294Z,0.00
2019-05-02T00:17:47.915Z,0.00
2019-05-02T00:18:55.530Z,0.00
2019-05-02T00:20:40.964Z,0.00
2019-05-02T00:21:42.922Z,0.00
2019-05-02T00:23:33.624Z,0.00
2019-05-02T00:24:33.982Z,0.00
2019-05-02T00:26:26.678Z,0.00
2019-05-02T00:27:26.443Z,0.00
2019-05-02T00:28:26.415Z,0.00
2019-05-02T00:29:26.393Z,0.00
2019-05-02T00:30:30.069Z,0.00
2019-05-02T00:31:26.350Z,0.00
2019-05-02T00:32:26.323Z,0.00
2019-05-02T00:33:29.329Z,0.00
2019-05-02T00:34:26.277Z,0.00
2019-05-02T00:35:26.255Z,0.00
2019-05-02T00:36:26.226Z,0.00
2019-05-02T00:37:26.677Z,0.00
2019-05-02T00:38:26.182Z,0.00
2019-05-02T00:39:26.158Z,0.00
2019-05-02T00:40:27.744Z,0.00
2019-05-02T00:41:26.101Z,0.00
2019-05-02T00:42:26.083Z,0.00
2019-05-02T00:43:28.988Z,0.00
2019-05-02T00:44:26.060Z,0.00
2019-05-02T00:45:26.071Z,0.00
2019-05-02T00:46:30.214Z,0.00
2019-05-02T00:47:33.141Z,0.00
2019-05-02T00:49:18.864Z,0.00
2019-05-02T00:50:35.991Z,0.00
2019-05-02T00:52:11.733Z,0.00
2019-05-02T00:53:18.854Z,0.00
2019-05-02T00:55:04.576Z,0.00
2019-05-02T00:56:11.695Z,0.00
2019-05-02T00:58:00.407Z,0.00
2019-05-02T00:59:02.441Z,0.00
2019-05-02T01:00:55.132Z,0.00
2019-05-02T01:01:54.790Z,0.00
2019-05-02T01:03:52.147Z,0.00
2019-05-02T01:04:47.614Z,0.00
2019-05-02T01:06:44.670Z,0.00
2019-05-02T01:07:42.002Z,0.00
2019-05-02T01:09:35.673Z,0.00
2019-05-02T01:10:35.346Z,0.00
2019-05-02T01:12:28.242Z,0.00
2019-05-02T01:13:28.215Z,0.00
2019-05-02T01:15:21.122Z,0.00
2019-05-02T01:16:21.070Z,0.00
2019-05-02T01:18:14.947Z,0.00
2019-05-02T01:19:16.158Z,0.00
2019-05-02T01:21:08.832Z,0.00
2019-05-02T01:22:10.407Z,0.00
2019-05-02T01:24:14.714Z,0.00
2019-05-02T01:25:15.752Z,0.00
2019-05-02T01:27:09.009Z,0.00
2019-05-02T01:28:12.588Z,0.00
2019-05-02T01:29:08.962Z,0.00
2019-05-02T01:30:08.940Z,0.00
2019-05-02T01:31:13.237Z,0.00
2019-05-02T01:32:08.890Z,0.00
2019-05-02T01:33:08.863Z,0.00
2019-05-02T01:34:13.060Z,0.00
2019-05-02T01:35:08.815Z,0.00
2019-05-02T01:36:08.798Z,0.00
2019-05-02T01:37:12.437Z,0.00
2019-05-02T01:38:08.740Z,0.00
2019-05-02T01:39:08.842Z,0.00
2019-05-02T01:40:13.038Z,0.00
2019-05-02T01:41:08.665Z,0.00
2019-05-02T01:42:08.647Z,0.00
2019-05-02T01:43:08.627Z,0.00
2019-05-02T01:44:08.600Z,0.00
2019-05-02T01:45:11.279Z,0.00
2019-05-02T01:46:08.553Z,0.00
2019-05-02T01:47:08.529Z,0.00
2019-05-02T01:48:09.862Z,0.00
2019-05-02T01:49:08.476Z,0.00
2019-05-02T01:50:08.457Z,0.00
2019-05-02T01:51:09.933Z,0.00
2019-05-02T01:52:08.424Z,0.00
2019-05-02T01:53:08.384Z,0.00
2019-05-02T01:54:10.088Z,0.00
2019-05-02T01:55:08.335Z,0.00
2019-05-02T01:56:08.311Z,0.00
2019-05-02T01:57:08.803Z,0.00
2019-05-02T01:58:08.262Z,0.00
2019-05-02T01:59:08.241Z,0.00
2019-05-02T02:00:09.580Z,0.00
2019-05-02T02:01:08.195Z,0.00
2019-05-02T02:02:08.168Z,0.00
2019-05-02T02:03:09.204Z,0.00
2019-05-02T02:04:08.115Z,0.00
2019-05-02T02:05:08.100Z,0.00
2019-05-02T02:06:10.003Z,0.00
2019-05-02T02:07:08.049Z,0.00
2019-05-02T02:08:08.021Z,0.00
2019-05-02T02:09:09.630Z,0.00
2019-05-02T02:10:07.979Z,0.00
2019-05-02T02:11:07.950Z,0.00
2019-05-02T02:12:09.876Z,0.00
2019-05-02T02:13:07.909Z,0.00
2019-05-02T02:14:12.694Z,0.00
2019-05-02T02:15:07.877Z,0.00
2019-05-02T02:16:07.831Z,0.00
2019-05-02T02:17:10.085Z,0.00
2019-05-02T02:18:07.780Z,0.00
2019-05-02T02:19:07.752Z,0.00
2019-05-02T02:20:09.773Z,0.00
2019-05-02T02:21:07.711Z,0.00
2019-05-02T02:22:07.700Z,0.00
2019-05-02T02:23:10.208Z,0.00
2019-05-02T02:24:07.632Z,0.00
2019-05-02T02:25:07.608Z,0.00
2019-05-02T02:26:12.077Z,0.00
2019-05-02T02:27:07.561Z,0.00
2019-05-02T02:28:07.537Z,0.00
2019-05-02T02:29:09.213Z,0.00
2019-05-02T02:30:07.494Z,0.00
2019-05-02T02:31:07.947Z,0.00
2019-05-02T02:32:07.446Z,0.00
2019-05-02T02:33:09.406Z,0.00
2019-05-02T02:34:07.392Z,0.00
2019-05-02T02:35:09.900Z,0.00
2019-05-02T02:36:07.349Z,0.00
2019-05-02T02:37:13.034Z,0.00
2019-05-02T02:38:07.296Z,0.00
2019-05-02T02:39:13.910Z,0.00
2019-05-02T02:40:07.248Z,0.00
2019-05-02T02:41:13.329Z,0.00
2019-05-02T02:42:07.201Z,0.00
2019-05-02T02:43:29.991Z,0.00
2019-05-02T02:44:07.159Z,0.00
2019-05-02T02:45:12.889Z,0.00
2019-05-02T02:46:07.101Z,0.00
2019-05-02T02:47:11.933Z,0.00
2019-05-02T02:48:07.052Z,0.00
2019-05-02T02:49:07.029Z,0.00
2019-05-02T02:50:07.001Z,0.00
2019-05-02T02:51:06.976Z,0.00
2019-05-02T02:52:07.098Z,0.00
2019-05-02T02:53:06.933Z,0.00
2019-05-02T02:54:06.906Z,0.00
2019-05-02T02:55:06.884Z,0.00
2019-05-02T02:56:06.858Z,0.00
2019-05-02T02:57:06.836Z,0.00
2019-05-02T02:58:06.831Z,0.00
2019-05-02T02:59:06.784Z,0.00
2019-05-02T03:00:08.300Z,0.00
2019-05-02T03:01:06.755Z,0.00
2019-05-02T03:02:11.646Z,0.00
2019-05-02T03:03:06.683Z,0.00
2019-05-02T03:04:09.084Z,0.00
2019-05-02T03:05:06.634Z,0.00
2019-05-02T03:06:08.185Z,0.00
2019-05-02T03:07:06.587Z,0.00
2019-05-02T03:08:07.266Z,0.00
2019-05-02T03:09:06.541Z,0.00
2019-05-02T03:10:08.300Z,0.00
2019-05-02T03:11:06.577Z,0.00
2019-05-02T03:12:06.461Z,0.00
2019-05-02T03:13:06.449Z,0.00
2019-05-02T03:14:09.266Z,0.00
2019-05-02T03:15:06.391Z,0.00
2019-05-02T03:16:07.553Z,0.00
2019-05-02T03:17:06.356Z,0.00
2019-05-02T03:18:06.321Z,0.00
2019-05-02T03:19:06.291Z,0.00
2019-05-02T03:20:06.264Z,0.00
2019-05-02T03:21:06.244Z,0.00
2019-05-02T03:22:06.217Z,0.00
2019-05-02T03:23:06.195Z,0.00
2019-05-02T03:24:06.219Z,0.00
2019-05-02T03:25:06.140Z,0.00
2019-05-02T03:26:07.813Z,0.00
2019-05-02T03:27:06.110Z,0.00
2019-05-02T03:28:17.905Z,0.00
2019-05-02T03:29:06.050Z,0.00
2019-05-02T03:30:06.030Z,0.00
2019-05-02T03:31:21.184Z,0.00
2019-05-02T03:32:22.162Z,0.00
2019-05-02T03:33:11.570Z,0.00
2019-05-02T03:34:05.937Z,0.00
2019-05-02T03:35:05.905Z,0.00
2019-05-02T03:36:25.755Z,0.00
2019-05-02T03:37:10.139Z,0.00
2019-05-02T03:38:05.824Z,0.00
2019-05-02T03:39:13.562Z,0.00
2019-05-02T03:40:05.779Z,0.00
2019-05-02T03:41:05.786Z,0.00
2019-05-02T03:42:05.758Z,5.63
2019-05-02T03:43:05.701Z,5.63
2019-05-02T03:44:11.104Z,5.63
2019-05-02T03:45:05.703Z,5.63
2019-05-02T03:46:05.625Z,5.63
2019-05-02T03:47:05.610Z,5.63
2019-05-02T03:48:05.578Z,11.25
2019-05-02T03:49:09.287Z,11.25
2019-05-02T03:50:08.862Z,11.25
2019-05-02T03:51:12.454Z,16.88
2019-05-02T03:52:05.974Z,16.88
2019-05-02T03:53:05.500Z,16.88
2019-05-02T03:54:07.347Z,16.88
2019-05-02T03:55:05.400Z,22.50
2019-05-02T03:56:11.262Z,22.50
2019-05-02T03:57:05.373Z,28.13
2019-05-02T03:58:12.788Z,28.13
2019-05-02T03:59:05.301Z,28.13
2019-05-02T04:00:21.300Z,33.75
2019-05-02T04:02:14.096Z,39.38
2019-05-02T04:03:02.036Z,39.38
2019-05-02T04:03:59.689Z,45.00
2019-05-02T04:05:00.520Z,45.00
2019-05-02T04:05:59.665Z,50.63
2019-05-02T04:07:00.970Z,50.63
2019-05-02T04:07:59.584Z,56.25
2019-05-02T04:09:08.107Z,56.25
2019-05-02T04:10:59.626Z,67.50
2019-05-02T04:12:01.479Z,67.50
2019-05-02T04:13:46.709Z,73.13
2019-05-02T04:14:56.041Z,78.75
2019-05-02T04:16:41.165Z,90.00
2019-05-02T04:17:41.039Z,90.00
2019-05-02T04:19:34.912Z,101.25
2019-05-02T04:20:34.385Z,101.25
2019-05-02T04:22:30.310Z,112.50
2019-05-02T04:23:30.275Z,118.13
2019-05-02T04:25:27.891Z,123.75
2019-05-02T04:26:23.607Z,129.38
2019-05-02T04:28:24.098Z,140.63
2019-05-02T04:29:24.707Z,146.25
2019-05-02T04:31:31.429Z,157.50
2019-05-02T04:32:28.507Z,163.13
2019-05-02T04:33:29.055Z,168.75
2019-05-02T04:34:28.423Z,174.38
2019-05-02T04:35:28.706Z,180.00
2019-05-02T04:36:28.365Z,185.63
2019-05-02T04:37:28.349Z,191.25
2019-05-02T04:38:39.270Z,191.25
2019-05-02T04:39:28.717Z,196.88
2019-05-02T04:40:28.447Z,202.50
2019-05-02T04:41:30.333Z,213.75
2019-05-02T04:42:29.401Z,213.75
2019-05-02T04:43:28.732Z,219.38
2019-05-02T04:44:29.727Z,230.63
2019-05-02T04:45:51.747Z,236.25
2019-05-02T04:47:22.364Z,247.50
2019-05-02T04:48:21.908Z,253.13
2019-05-02T04:50:19.898Z,264.38
2019-05-02T04:51:20.209Z,270.00
2019-05-02T04:53:12.078Z,281.25
2019-05-02T04:54:21.947Z,286.88
2019-05-02T04:56:10.120Z,292.50
2019-05-02T04:57:08.221Z,303.75
2019-05-02T04:59:01.834Z,320.63
2019-05-02T05:00:06.326Z,326.25
2019-05-02T05:01:57.589Z,354.38
2019-05-02T05:02:53.427Z,393.75
2019-05-02T05:04:49.204Z,427.50
2019-05-02T05:05:48.207Z,450.00
2019-05-02T05:07:45.818Z,478.13
2019-05-02T05:08:41.565Z,489.38
2019-05-02T05:10:41.491Z,511.88
2019-05-02T05:11:38.033Z,517.50
2019-05-02T05:13:30.767Z,517.50
2019-05-02T05:14:38.278Z,528.75
2019-05-02T05:15:38.301Z,534.38
2019-05-02T05:16:30.472Z,540.00
2019-05-02T05:17:32.947Z,562.50
2019-05-02T05:18:30.424Z,573.75
2019-05-02T05:19:32.716Z,585.00
2019-05-02T05:20:30.374Z,590.63
2019-05-02T05:21:30.346Z,590.63
2019-05-02T05:22:30.332Z,601.88
2019-05-02T05:23:30.311Z,613.13
2019-05-02T05:24:32.841Z,618.75
2019-05-02T05:25:30.267Z,635.63
2019-05-02T05:26:33.766Z,646.88
2019-05-02T05:27:30.216Z,675.00
2019-05-02T05:28:30.196Z,680.63
2019-05-02T05:29:30.179Z,641.25
2019-05-02T05:30:30.163Z,607.50
2019-05-02T05:31:30.127Z,607.50
2019-05-02T05:32:30.125Z,613.13
2019-05-02T05:33:30.102Z,624.38
2019-05-02T05:34:32.643Z,646.88
2019-05-02T05:35:30.046Z,652.50
2019-05-02T05:36:33.899Z,658.13
2019-05-02T05:37:30.000Z,669.38
2019-05-02T05:38:32.685Z,680.63
2019-05-02T05:39:29.960Z,663.75
2019-05-02T05:40:32.021Z,675.00
2019-05-02T05:41:29.917Z,680.63
2019-05-02T05:42:33.058Z,680.63
2019-05-02T05:43:29.874Z,703.13
2019-05-02T05:44:32.646Z,708.75
2019-05-02T05:45:29.834Z,720.00
2019-05-02T05:46:33.352Z,731.25
2019-05-02T05:47:29.788Z,748.13
2019-05-02T05:48:32.162Z,770.63
2019-05-02T05:49:29.761Z,781.88
2019-05-02T05:50:32.159Z,804.38
2019-05-02T05:51:29.708Z,826.88
2019-05-02T05:52:32.968Z,849.38
2019-05-02T05:53:29.669Z,871.88
2019-05-02T05:54:33.046Z,888.75
2019-05-02T05:55:31.627Z,905.63
2019-05-02T05:56:32.562Z,916.88
2019-05-02T05:57:29.618Z,928.13
2019-05-02T05:58:29.582Z,928.13
2019-05-02T05:59:32.039Z,945.00
2019-05-02T06:00:29.543Z,984.38
2019-05-02T06:01:34.406Z,1006.88
2019-05-02T06:02:29.502Z,1012.50
2019-05-02T06:03:29.481Z,1006.88
2019-05-02T06:04:33.072Z,1046.25
2019-05-02T06:05:33.120Z,1063.13
2019-05-02T06:06:29.422Z,1080.00
2019-05-02T06:07:33.583Z,1125.00
2019-05-02T06:08:29.391Z,1108.13
2019-05-02T06:09:31.143Z,1130.63
2019-05-02T06:10:29.353Z,1186.88
2019-05-02T06:11:29.339Z,1209.38
2019-05-02T06:12:30.380Z,1243.13
2019-05-02T06:13:29.307Z,1260.00
2019-05-02T06:14:29.302Z,1243.13
2019-05-02T06:15:29.265Z,1299.38
2019-05-02T06:16:29.247Z,1299.38
2019-05-02T06:17:30.438Z,1316.25
2019-05-02T06:18:29.212Z,1310.63
2019-05-02T06:19:29.196Z,1333.13
2019-05-02T06:20:30.556Z,1366.88
2019-05-02T06:21:29.161Z,1350.00
2019-05-02T06:22:29.142Z,1383.75
2019-05-02T06:23:31.035Z,1400.63
2019-05-02T06:24:29.112Z,1445.63
2019-05-02T06:25:34.376Z,1462.50
2019-05-02T06:26:29.077Z,1468.13
2019-05-02T06:27:30.486Z,1501.88
2019-05-02T06:28:29.044Z,1513.13
2019-05-02T06:29:29.032Z,1546.88
2019-05-02T06:30:31.018Z,1563.75
2019-05-02T06:31:28.996Z,1608.75
2019-05-02T06:32:28.979Z,1603.13
2019-05-02T06:33:30.536Z,1636.88
2019-05-02T06:34:28.947Z,1670.63
2019-05-02T06:35:28.934Z,1704.38
2019-05-02T06:36:31.965Z,1710.00
2019-05-02T06:37:28.899Z,1749.38
2019-05-02T06:38:28.887Z,1755.00
2019-05-02T06:39:32.061Z,1805.63
2019-05-02T06:40:28.857Z,1794.38
2019-05-02T06:41:28.837Z,1816.88
2019-05-02T06:42:32.676Z,1833.75
2019-05-02T06:43:28.810Z,1873.13
2019-05-02T06:44:28.793Z,1884.38
2019-05-02T06:45:32.207Z,1918.13
2019-05-02T06:46:29.716Z,1929.38
2019-05-02T06:47:28.753Z,1951.88
2019-05-02T06:48:28.739Z,1963.13
2019-05-02T06:49:28.723Z,2008.13
2019-05-02T06:50:33.266Z,2030.63
2019-05-02T06:51:28.699Z,2030.63
2019-05-02T06:52:32.738Z,2041.88
2019-05-02T06:53:28.664Z,2103.75
2019-05-02T06:54:28.654Z,2115.00
2019-05-02T06:55:35.998Z,2148.75
2019-05-02T06:56:28.630Z,2205.00
2019-05-02T06:57:28.615Z,2205.00
2019-05-02T06:58:28.609Z,2238.75
2019-05-02T06:59:28.592Z,2210.63
2019-05-02T07:00:35.413Z,2210.63
2019-05-02T07:01:28.561Z,2261.25
2019-05-02T07:02:33.662Z,2205.00
2019-05-02T07:03:28.537Z,2148.75
2019-05-02T07:04:28.527Z,2064.38
2019-05-02T07:05:28.509Z,2103.75
2019-05-02T07:06:28.546Z,2148.75
2019-05-02T07:07:31.183Z,2216.25
2019-05-02T07:08:28.510Z,2255.63
2019-05-02T07:09:39.814Z,2244.38
2019-05-02T07:10:33.659Z,2278.13
2019-05-02T07:11:28.431Z,2143.13
2019-05-02T07:12:28.414Z,2221.88
2019-05-02T07:13:28.408Z,2311.88
2019-05-02T07:14:35.580Z,2283.75
2019-05-02T07:16:36.893Z,2199.38
2019-05-02T07:17:26.493Z,2289.38
2019-05-02T07:19:32.260Z,2182.50
2019-05-02T07:20:35.195Z,2047.50
2019-05-02T07:22:26.883Z,2435.63
2019-05-02T07:23:26.858Z,2463.75
2019-05-02T07:25:20.775Z,2683.13
2019-05-02T07:26:21.123Z,2722.50
2019-05-02T07:28:16.385Z,2756.25
2019-05-02T07:29:16.970Z,2806.88
2019-05-02T07:31:13.899Z,3026.25
2019-05-02T07:32:12.219Z,3155.63
2019-05-02T07:34:08.037Z,3313.13
2019-05-02T07:35:05.621Z,3307.50
2019-05-02T07:36:59.025Z,3060.00
2019-05-02T07:38:06.187Z,3037.50
2019-05-02T07:39:51.952Z,3048.75
2019-05-02T07:40:53.040Z,3048.75
2019-05-02T07:42:44.819Z,3071.25
2019-05-02T07:43:56.292Z,2986.88
2019-05-02T07:45:40.187Z,3127.50
2019-05-02T07:46:50.956Z,3110.63
2019-05-02T07:48:34.134Z,3127.50
2019-05-02T07:49:34.330Z,3166.88
2019-05-02T07:50:34.100Z,3099.38
2019-05-02T07:51:34.241Z,3144.38
2019-05-02T07:52:34.979Z,3206.25
2019-05-02T07:53:34.106Z,3273.75
2019-05-02T07:54:34.073Z,3223.13
2019-05-02T07:55:35.348Z,3346.88
2019-05-02T07:56:34.032Z,3375.00
2019-05-02T07:57:34.021Z,3453.75
2019-05-02T07:58:38.443Z,3493.13
2019-05-02T07:59:34.002Z,3555.00
2019-05-02T08:00:37.050Z,3566.25
2019-05-02T08:01:34.008Z,3594.38
2019-05-02T08:02:33.994Z,3628.13
2019-05-02T08:03:34.778Z,3661.88
2019-05-02T08:04:33.945Z,3633.75
2019-05-02T08:05:33.929Z,3600.00
2019-05-02T08:06:35.268Z,3656.25
2019-05-02T08:07:34.563Z,3605.63
2019-05-02T08:08:36.246Z,3515.63
2019-05-02T08:09:33.915Z,3594.38
2019-05-02T08:10:33.909Z,3510.00
2019-05-02T08:11:37.118Z,3425.63
2019-05-02T08:12:33.881Z,3543.75
2019-05-02T08:13:33.861Z,3588.75
2019-05-02T08:14:34.605Z,3549.38
2019-05-02T08:15:33.837Z,3521.25
2019-05-02T08:16:33.844Z,3633.75
2019-05-02T08:17:33.809Z,3729.38
2019-05-02T08:18:33.806Z,3729.38
2019-05-02T08:19:37.545Z,3757.50
2019-05-02T08:20:33.783Z,3684.38
2019-05-02T08:21:34.003Z,3706.88
2019-05-02T08:22:33.761Z,3583.13
2019-05-02T08:23:33.762Z,3825.00
2019-05-02T08:24:37.926Z,3791.25
2019-05-02T08:25:33.732Z,3656.25
2019-05-02T08:26:33.724Z,3808.13
2019-05-02T08:27:34.654Z,3836.25
2019-05-02T08:28:33.704Z,3746.25
2019-05-02T08:29:33.695Z,3774.38
2019-05-02T08:30:35.391Z,3729.38
2019-05-02T08:31:33.683Z,3785.63
2019-05-02T08:32:33.669Z,3791.25
2019-05-02T08:33:35.704Z,3774.38
2019-05-02T08:34:33.648Z,3830.63
2019-05-02T08:35:33.644Z,3875.63
2019-05-02T08:36:33.629Z,3892.50
2019-05-02T08:37:35.394Z,3870.00
2019-05-02T08:38:33.613Z,3965.63
2019-05-02T08:39:34.867Z,4083.75
2019-05-02T08:40:33.594Z,3976.88
2019-05-02T08:41:33.582Z,4123.13
2019-05-02T08:42:33.854Z,4066.88
2019-05-02T08:43:33.558Z,4050.00
2019-05-02T08:44:33.554Z,4179.38
2019-05-02T08:45:38.306Z,4230.00
2019-05-02T08:46:33.531Z,4269.38
2019-05-02T08:47:33.528Z,4196.25
2019-05-02T08:48:36.565Z,4235.63
2019-05-02T08:49:33.578Z,4224.38
2019-05-02T08:50:33.557Z,4218.75
2019-05-02T08:51:33.523Z,4308.75
2019-05-02T08:52:36.735Z,4162.50
2019-05-02T08:53:33.467Z,4173.75
2019-05-02T08:54:34.094Z,4089.38
2019-05-02T08:55:33.471Z,4111.88
2019-05-02T08:56:34.963Z,4381.88
2019-05-02T08:57:34.527Z,4252.50
2019-05-02T08:58:33.456Z,4320.00
2019-05-02T08:59:33.440Z,4365.00
2019-05-02T09:00:37.438Z,4460.63
2019-05-02T09:01:35.332Z,4522.50
2019-05-02T09:02:41.156Z,4421.25
2019-05-02T09:03:38.946Z,4460.63
2019-05-02T09:04:33.429Z,4410.00
2019-05-02T09:05:36.401Z,4528.13
2019-05-02T09:06:33.382Z,4556.25
2019-05-02T09:07:37.098Z,4561.88
2019-05-02T09:08:33.381Z,4635.00
2019-05-02T09:09:33.409Z,4623.75
2019-05-02T09:10:37.142Z,4663.13
2019-05-02T09:11:33.360Z,4685.63
2019-05-02T09:12:36.706Z,4736.25
2019-05-02T09:13:33.351Z,4803.75
2019-05-02T09:16:02.794Z,4792.50
2019-05-02T09:16:55.008Z,4770.00
2019-05-02T09:19:04.479Z,4882.50
2019-05-02T09:20:10.547Z,4871.25
2019-05-02T09:21:57.301Z,4713.75
2019-05-02T09:22:57.285Z,4635.00
2019-05-02T09:25:12.484Z,4803.75
2019-05-02T09:25:53.215Z,4657.50
2019-05-02T09:27:47.595Z,4775.63
2019-05-02T09:28:47.581Z,5107.50
2019-05-02T09:30:43.114Z,4933.13
2019-05-02T09:31:46.011Z,5056.88
2019-05-02T09:32:43.094Z,5028.75
2019-05-02T09:33:46.858Z,4854.38
2019-05-02T09:34:43.035Z,5259.38
2019-05-02T09:35:43.021Z,5090.63
2019-05-02T09:36:43.030Z,5040.00
2019-05-02T09:37:43.062Z,4989.38
2019-05-02T09:38:43.107Z,5085.00
2019-05-02T09:39:42.992Z,4972.50
2019-05-02T09:40:47.165Z,5203.13
2019-05-02T09:41:42.994Z,5231.25
2019-05-02T09:42:47.249Z,5253.75
2019-05-02T09:43:42.979Z,5259.38
2019-05-02T09:44:42.940Z,5197.50
2019-05-02T09:45:43.958Z,5197.50
2019-05-02T09:46:42.937Z,5107.50
2019-05-02T09:47:56.597Z,5056.88
2019-05-02T09:48:42.943Z,4955.63
2019-05-02T09:49:48.864Z,5011.88
2019-05-02T09:50:42.906Z,5073.75
2019-05-02T09:51:45.397Z,5017.50
2019-05-02T09:52:44.105Z,4921.88
2019-05-02T09:53:43.314Z,5073.75
2019-05-02T09:54:46.074Z,5152.50
2019-05-02T09:55:50.228Z,5259.38
2019-05-02T09:56:43.134Z,5394.38
2019-05-02T09:57:42.935Z,5495.63
2019-05-02T09:58:42.861Z,5433.75
2019-05-02T09:59:50.421Z,5529.38
2019-05-02T10:00:42.827Z,5101.88
2019-05-02T10:01:42.821Z,5338.13
2019-05-02T10:02:42.800Z,5146.88
2019-05-02T10:03:42.811Z,5287.50
2019-05-02T10:04:44.092Z,5400.00
2019-05-02T10:05:43.195Z,5467.50
2019-05-02T10:06:43.069Z,5411.25
2019-05-02T10:07:42.761Z,5692.50
2019-05-02T10:08:45.490Z,5619.38
2019-05-02T10:09:42.766Z,5844.38
2019-05-02T10:10:45.806Z,5675.63
2019-05-02T10:11:42.720Z,5186.25
2019-05-02T10:12:42.832Z,4826.25
2019-05-02T10:13:42.701Z,4899.38
2019-05-02T10:14:42.705Z,5321.25
2019-05-02T10:15:42.681Z,5130.00
2019-05-02T10:16:42.780Z,5776.88
2019-05-02T10:17:46.619Z,5799.38
2019-05-02T10:18:43.188Z,5782.50
2019-05-02T10:19:49.521Z,5636.25
2019-05-02T10:20:42.677Z,5557.50
2019-05-02T10:21:47.127Z,5720.63
2019-05-02T10:22:43.803Z,5692.50
2019-05-02T10:23:42.817Z,5726.25
2019-05-02T10:24:42.608Z,5889.38
2019-05-02T10:25:46.811Z,5698.13
2019-05-02T10:26:42.580Z,5765.63
2019-05-02T10:27:45.947Z,5833.13
2019-05-02T10:28:49.352Z,5720.63
2019-05-02T10:29:42.571Z,5400.00
2019-05-02T10:30:42.895Z,5776.88
2019-05-02T10:31:42.736Z,5293.13
2019-05-02T10:32:42.823Z,5788.13
2019-05-02T10:33:42.520Z,5776.88
2019-05-02T10:34:42.548Z,4348.13
2019-05-02T10:35:43.404Z,5135.63
2019-05-02T10:36:45.220Z,5281.88
2019-05-02T10:37:43.061Z,5248.13
2019-05-02T10:38:42.769Z,4601.25
2019-05-02T10:39:42.487Z,5360.63
2019-05-02T10:40:42.574Z,5338.13
2019-05-02T10:41:43.764Z,5692.50
2019-05-02T10:42:42.469Z,6035.63
2019-05-02T10:43:42.485Z,5754.38
2019-05-02T10:44:42.747Z,5467.50
2019-05-02T10:45:42.625Z,2401.88
2019-05-02T10:46:42.412Z,1760.63
2019-05-02T10:47:42.436Z,3020.63
2019-05-02T10:48:42.414Z,5703.75
2019-05-02T10:49:42.684Z,6041.25
2019-05-02T10:50:42.422Z,5838.75
2019-05-02T10:51:48.909Z,5855.63
2019-05-02T10:52:42.559Z,5220.00
2019-05-02T10:53:42.523Z,5225.63
2019-05-02T10:54:42.388Z,5248.13
2019-05-02T10:55:42.658Z,4078.13
2019-05-02T10:56:42.445Z,5478.75
2019-05-02T10:57:42.347Z,5506.88
2019-05-02T10:58:42.675Z,5287.50
2019-05-02T10:59:42.308Z,5580.00
2019-05-02T11:00:45.255Z,5625.00
2019-05-02T11:01:42.308Z,5310.00
2019-05-02T11:02:42.296Z,5141.25
2019-05-02T11:03:43.715Z,5107.50
2019-05-02T11:04:42.285Z,5366.25
2019-05-02T11:05:42.265Z,5563.13
2019-05-02T11:06:46.110Z,5158.13
2019-05-02T11:07:42.260Z,4803.75
2019-05-02T11:08:45.948Z,5073.75
2019-05-02T11:09:42.250Z,5028.75
2019-05-02T11:10:42.319Z,4651.88
2019-05-02T11:11:42.580Z,4516.88
2019-05-02T11:12:46.797Z,4584.38
2019-05-02T11:13:42.645Z,4730.63
2019-05-02T11:14:42.227Z,2379.38
2019-05-02T11:15:42.152Z,1912.50
2019-05-02T11:16:42.343Z,2283.75
2019-05-02T11:17:42.370Z,2908.13
2019-05-02T11:18:44.857Z,5315.63
2019-05-02T11:19:42.116Z,5529.38
2019-05-02T11:20:42.230Z,1918.13
2019-05-02T11:21:53.518Z,1923.75
2019-05-02T11:22:42.760Z,5214.38
2019-05-02T11:23:42.098Z,4865.63
2019-05-02T11:24:42.075Z,5293.13
2019-05-02T11:25:42.239Z,5596.88
2019-05-02T11:26:42.958Z,5152.50
2019-05-02T11:27:42.081Z,5360.63
2019-05-02T11:28:52.161Z,5118.75
2019-05-02T11:30:47.323Z,2531.25
2019-05-02T11:31:47.263Z,2598.75
2019-05-02T11:33:41.880Z,5293.13
2019-05-02T11:34:42.051Z,5422.50
2019-05-02T11:36:34.377Z,5523.75
2019-05-02T11:37:34.031Z,5731.88
2019-05-02T11:39:36.002Z,6069.38
2019-05-02T11:40:27.631Z,5917.50
2019-05-02T11:42:25.701Z,5495.63
2019-05-02T11:43:22.428Z,5546.25
2019-05-02T11:45:25.234Z,5771.25
2019-05-02T11:46:25.182Z,5338.13
2019-05-02T11:48:22.622Z,5709.38
2019-05-02T11:49:22.763Z,5321.25
2019-05-02T11:51:16.423Z,2030.63
2019-05-02T11:52:14.468Z,2581.88
2019-05-02T11:53:24.902Z,4466.25
2019-05-02T11:54:14.459Z,4387.50
2019-05-02T11:55:14.455Z,2722.50
2019-05-02T11:56:14.427Z,2401.88
2019-05-02T11:57:14.421Z,2075.63
2019-05-02T11:58:14.405Z,1816.88
2019-05-02T11:59:15.050Z,1636.88
2019-05-02T12:00:14.391Z,1586.25
2019-05-02T12:01:14.379Z,1698.75
2019-05-02T12:02:18.782Z,2086.88
2019-05-02T12:03:14.358Z,5484.38
2019-05-02T12:04:16.843Z,5591.25
2019-05-02T12:05:14.364Z,5518.13
2019-05-02T12:06:19.516Z,5349.38
2019-05-02T12:07:14.316Z,4893.75
2019-05-02T12:08:14.299Z,4089.38
2019-05-02T12:09:14.287Z,4972.50
2019-05-02T12:10:14.280Z,5411.25
2019-05-02T12:11:17.652Z,5591.25
2019-05-02T12:12:15.713Z,5585.63
2019-05-02T12:13:16.097Z,5568.75
2019-05-02T12:14:14.261Z,5698.13
2019-05-02T12:15:14.237Z,3166.88
2019-05-02T12:16:14.220Z,2565.00
2019-05-02T12:17:14.246Z,2115.00
2019-05-02T12:18:14.197Z,2311.88
2019-05-02T12:19:14.980Z,2070.00
2019-05-02T12:20:14.196Z,1828.13
2019-05-02T12:21:14.174Z,1693.13
2019-05-02T12:22:16.923Z,1558.13
2019-05-02T12:23:14.148Z,1524.38
2019-05-02T12:24:14.176Z,1659.38
2019-05-02T12:25:14.134Z,4601.25
2019-05-02T12:26:14.114Z,4702.50
2019-05-02T12:27:14.113Z,2362.50
2019-05-02T12:28:14.380Z,3076.88
2019-05-02T12:29:14.151Z,2368.13
2019-05-02T12:30:14.083Z,2176.88
2019-05-02T12:31:16.683Z,4016.25
2019-05-02T12:32:15.603Z,5388.75
2019-05-02T12:33:14.035Z,5439.38
2019-05-02T12:34:14.030Z,5287.50
2019-05-02T12:35:14.017Z,5197.50
2019-05-02T12:36:14.001Z,5186.25
2019-05-02T12:37:13.996Z,5124.38
2019-05-02T12:38:14.001Z,5006.25
2019-05-02T12:39:13.981Z,4567.50
2019-05-02T12:40:14.023Z,2013.75
2019-05-02T12:41:22.316Z,3408.75
2019-05-02T12:42:14.173Z,2092.50
2019-05-02T12:43:13.933Z,2317.50
2019-05-02T12:44:13.919Z,2874.38
2019-05-02T12:45:13.915Z,3858.75
2019-05-02T12:46:13.891Z,2868.75
2019-05-02T12:47:13.887Z,4286.25
2019-05-02T12:48:13.881Z,4100.63
2019-05-02T12:49:24.393Z,4016.25
2019-05-02T12:50:13.855Z,3903.75
2019-05-02T12:51:13.846Z,4207.50
2019-05-02T12:52:13.836Z,3999.38
2019-05-02T12:53:13.821Z,3768.75
2019-05-02T12:54:13.853Z,3915.00
2019-05-02T12:55:13.816Z,2047.50
2019-05-02T12:56:13.786Z,3420.00
2019-05-02T12:57:13.777Z,3757.50
2019-05-02T12:58:13.768Z,3678.75
2019-05-02T12:59:13.749Z,3555.00
2019-05-02T13:00:13.746Z,3735.00
2019-05-02T13:01:13.726Z,3673.13
2019-05-02T13:02:13.753Z,2193.75
2019-05-02T13:03:13.706Z,1884.38
2019-05-02T13:04:13.709Z,2587.50
2019-05-02T13:05:13.692Z,2435.63
2019-05-02T13:06:13.677Z,1901.25
2019-05-02T13:07:13.664Z,3476.25
2019-05-02T13:08:13.654Z,2188.13
2019-05-02T13:09:13.645Z,3858.75
2019-05-02T13:10:13.635Z,3819.38
2019-05-02T13:11:14.315Z,3954.38
2019-05-02T13:12:13.613Z,4038.75
2019-05-02T13:13:16.129Z,4021.88
2019-05-02T13:14:18.936Z,3780.00
2019-05-02T13:15:13.628Z,3718.13
2019-05-02T13:16:13.587Z,4061.25
2019-05-02T13:17:13.565Z,3830.63
2019-05-02T13:18:13.539Z,3150.00
2019-05-02T13:19:13.532Z,3661.88
2019-05-02T13:20:13.574Z,1710.00
2019-05-02T13:21:16.915Z,1490.63
2019-05-02T13:22:13.499Z,1665.00
2019-05-02T13:23:13.487Z,4269.38
2019-05-02T13:24:16.326Z,4134.38
2019-05-02T13:25:13.470Z,3976.88
2019-05-02T13:26:19.774Z,3802.50
2019-05-02T13:27:13.445Z,3881.25
2019-05-02T13:28:17.008Z,3706.88
2019-05-02T13:29:13.426Z,3594.38
2019-05-02T13:30:13.448Z,3740.63
2019-05-02T13:31:13.425Z,3645.00